Salekhard, Russia
Current Conditions -  °F | °C
As of 2:00 PM on Monday 22 Dec 2014 (Local Time) from USHH Reporting Station
Clear Clear  
Wind Chill: 16°   Ceiling: Unl
Heat Index: 28°   Visibility: 6mi
Dew Point: 21°   Wind: 18mph
Humidity: 74%   Direction: 240°WSW
Pressure: 29.71"   Gusts: NA
Location:  66.53°N, 66.6°E
Report Text: USHH 220900Z 24008MPS CAVOK M02/M06 Q1006 NOSIG RMK QFE75024////37
Loading
Personal Weather Stations






























Interactive Weather Map New forecast layout! Learn more

10-Day Weather Forecast

Advertisements
Track Severe Weather on mobile